sensor_id;sensor_type;location;lat;lon;timestamp;pressure;altitude;pressure_sealevel;temperature;humidity
54872;BME280;43914;57.680;11.982;2022-10-16T00:02:16;99441.27;;;11.97;100.00
54872;BME280;43914;57.680;11.982;2022-10-16T00:04:42;99447.80;;;11.89;100.00
54872;BME280;43914;57.680;11.982;2022-10-16T00:07:08;99443.30;;;11.83;100.00
54872;BME280;43914;57.680;11.982;2022-10-16T00:09:34;99444.73;;;11.76;100.00
54872;BME280;43914;57.680;11.982;2022-10-16T00:12:01;99447.79;;;11.71;100.00
54872;BME280;43914;57.680;11.982;2022-10-16T00:14:29;99447.05;;;11.63;100.00
54872;BME280;43914;57.680;11.982;2022-10-16T00:16:57;99447.86;;;11.54;100.00
54872;BME280;43914;57.680;11.982;2022-10-16T00:19:25;99453.59;;;11.49;100.00
54872;BME280;43914;57.680;11.982;2022-10-16T00:21:51;99461.00;;;11.44;100.00
54872;BME280;43914;57.680;11.982;2022-10-16T00:24:17;99461.87;;;11.38;100.00
54872;BME280;43914;57.680;11.982;2022-10-16T00:26:43;99464.84;;;11.30;100.00
54872;BME280;43914;57.680;11.982;2022-10-16T00:29:09;99470.67;;;11.26;100.00
54872;BME280;43914;57.680;11.982;2022-10-16T00:31:36;99475.66;;;11.23;100.00
54872;BME280;43914;57.680;11.982;2022-10-16T00:34:02;99481.48;;;11.20;100.00
54872;BME280;43914;57.680;11.982;2022-10-16T00:36:29;99478.19;;;11.18;100.00
54872;BME280;43914;57.680;11.982;2022-10-16T00:38:57;99481.41;;;11.17;100.00
54872;BME280;43914;57.680;11.982;2022-10-16T00:41:25;99478.19;;;11.18;100.00
54872;BME280;43914;57.680;11.982;2022-10-16T00:43:54;99480.13;;;11.20;100.00
54872;BME280;43914;57.680;11.982;2022-10-16T00:46:27;99485.30;;;11.21;100.00
54872;BME280;43914;57.680;11.982;2022-10-16T00:51:39;99487.55;;;11.24;100.00
54872;BME280;43914;57.680;11.982;2022-10-16T00:54:14;99491.28;;;11.23;100.00
54872;BME280;43914;57.680;11.982;2022-10-16T00:56:38;99494.92;;;11.20;100.00
54872;BME280;43914;57.680;11.982;2022-10-16T00:59:07;99491.13;;;11.18;100.00
54872;BME280;43914;57.680;11.982;2022-10-16T01:01:35;99507.40;;;11.14;100.00
54872;BME280;43914;57.680;11.982;2022-10-16T01:04:01;99498.94;;;11.10;100.00
54872;BME280;43914;57.680;11.982;2022-10-16T01:10:03;99510.03;;;11.05;100.00
54872;BME280;43914;57.680;11.982;2022-10-16T01:12:52;99511.75;;;10.99;100.00
54872;BME280;43914;57.680;11.982;2022-10-16T01:15:41;99510.74;;;10.93;100.00
54872;BME280;43914;57.680;11.982;2022-10-16T01:18:39;99518.34;;;10.87;100.00
54872;BME280;43914;57.680;11.982;2022-10-16T01:21:26;99506.58;;;10.81;100.00
54872;BME280;43914;57.680;11.982;2022-10-16T01:24:06;99516.66;;;10.77;100.00
54872;BME280;43914;57.680;11.982;2022-10-16T01:27:12;99517.19;;;10.70;100.00
54872;BME280;43914;57.680;11.982;2022-10-16T01:30:11;99513.82;;;10.65;100.00
54872;BME280;43914;57.680;11.982;2022-10-16T01:32:55;99508.58;;;10.61;100.00
54872;BME280;43914;57.680;11.982;2022-10-16T01:35:30;99512.94;;;10.55;100.00
54872;BME280;43914;57.680;11.982;2022-10-16T01:38:07;99517.30;;;10.49;100.00
54872;BME280;43914;57.680;11.982;2022-10-16T01:40:39;99517.92;;;10.45;100.00
54872;BME280;43914;57.680;11.982;2022-10-16T01:43:14;99520.09;;;10.38;100.00
54872;BME280;43914;57.680;11.982;2022-10-16T01:45:42;99520.95;;;10.32;100.00
54872;BME280;43914;57.680;11.982;2022-10-16T01:48:12;99527.48;;;10.27;100.00
54872;BME280;43914;57.680;11.982;2022-10-16T01:50:41;99521.20;;;10.24;100.00
54872;BME280;43914;57.680;11.982;2022-10-16T01:53:11;99516.69;;;10.18;100.00
54872;BME280;43914;57.680;11.982;2022-10-16T01:55:41;99518.77;;;10.16;100.00
54872;BME280;43914;57.680;11.982;2022-10-16T01:58:12;99518.34;;;10.12;100.00
54872;BME280;43914;57.680;11.982;2022-10-16T02:00:42;99518.47;;;10.08;100.00
54872;BME280;43914;57.680;11.982;2022-10-16T02:03:11;99524.77;;;10.04;100.00
54872;BME280;43914;57.680;11.982;2022-10-16T02:06:01;99521.47;;;10.02;100.00
54872;BME280;43914;57.680;11.982;2022-10-16T02:08:19;99528.91;;;10.00;100.00
54872;BME280;43914;57.680;11.982;2022-10-16T02:10:46;99529.64;;;9.98;100.00
54872;BME280;43914;57.680;11.982;2022-10-16T02:13:25;99526.04;;;9.95;100.00
54872;BME280;43914;57.680;11.982;2022-10-16T02:15:52;99524.09;;;9.93;100.00
54872;BME280;43914;57.680;11.982;2022-10-16T02:18:19;99528.23;;;9.89;100.00
54872;BME280;43914;57.680;11.982;2022-10-16T02:23:33;99536.39;;;9.85;100.00
54872;BME280;43914;57.680;11.982;2022-10-16T02:26:07;99540.81;;;9.81;100.00
54872;BME280;43914;57.680;11.982;2022-10-16T02:28:41;99543.19;;;9.80;100.00
54872;BME280;43914;57.680;11.982;2022-10-16T02:31:11;99549.39;;;9.81;100.00
54872;BME280;43914;57.680;11.982;2022-10-16T02:33:40;99547.94;;;9.78;100.00
54872;BME280;43914;57.680;11.982;2022-10-16T02:36:09;99550.92;;;9.79;100.00
54872;BME280;43914;57.680;11.982;2022-10-16T02:38:36;99554.88;;;9.84;100.00
54872;BME280;43914;57.680;11.982;2022-10-16T02:41:04;99554.76;;;9.88;100.00
54872;BME280;43914;57.680;11.982;2022-10-16T02:43:31;99557.22;;;9.89;100.00
54872;BME280;43914;57.680;11.982;2022-10-16T02:45:59;99558.67;;;9.92;100.00
54872;BME280;43914;57.680;11.982;2022-10-16T02:48:25;99553.49;;;9.97;100.00
54872;BME280;43914;57.680;11.982;2022-10-16T02:50:52;99551.73;;;10.00;100.00
54872;BME280;43914;57.680;11.982;2022-10-16T02:53:20;99551.84;;;10.03;100.00
54872;BME280;43914;57.680;11.982;2022-10-16T02:55:46;99548.63;;;10.03;100.00
54872;BME280;43914;57.680;11.982;2022-10-16T02:58:12;99552.76;;;10.06;100.00
54872;BME280;43914;57.680;11.982;2022-10-16T03:00:38;99549.84;;;10.07;100.00
54872;BME280;43914;57.680;11.982;2022-10-16T03:03:04;99554.28;;;10.11;100.00
54872;BME280;43914;57.680;11.982;2022-10-16T03:05:30;99553.13;;;10.16;100.00
54872;BME280;43914;57.680;11.982;2022-10-16T03:07:57;99554.36;;;10.20;100.00
54872;BME280;43914;57.680;11.982;2022-10-16T03:10:25;99552.28;;;10.22;100.00
54872;BME280;43914;57.680;11.982;2022-10-16T03:12:51;99555.08;;;10.25;100.00
54872;BME280;43914;57.680;11.982;2022-10-16T03:15:17;99549.17;;;10.25;100.00
54872;BME280;43914;57.680;11.982;2022-10-16T03:17:44;99549.28;;;10.28;100.00
54872;BME280;43914;57.680;11.982;2022-10-16T03:20:11;99545.13;;;10.32;100.00
54872;BME280;43914;57.680;11.982;2022-10-16T03:22:37;99551.84;;;10.32;100.00
54872;BME280;43914;57.680;11.982;2022-10-16T03:25:04;99546.47;;;10.32;100.00
54872;BME280;43914;57.680;11.982;2022-10-16T03:27:30;99543.48;;;10.31;100.00
54872;BME280;43914;57.680;11.982;2022-10-16T03:29:57;99542.03;;;10.29;100.00
54872;BME280;43914;57.680;11.982;2022-10-16T03:32:23;99543.17;;;10.30;100.00
54872;BME280;43914;57.680;11.982;2022-10-16T03:34:50;99544.52;;;10.30;100.00
54872;BME280;43914;57.680;11.982;2022-10-16T03:37:18;99545.05;;;10.30;100.00
54872;BME280;43914;57.680;11.982;2022-10-16T03:39:44;99552.47;;;10.28;100.00
54872;BME280;43914;57.680;11.982;2022-10-16T03:42:10;99550.74;;;10.24;100.00
54872;BME280;43914;57.680;11.982;2022-10-16T03:44:38;99556.31;;;10.22;100.00
54872;BME280;43914;57.680;11.982;2022-10-16T03:47:04;99546.22;;;10.18;100.00
54872;BME280;43914;57.680;11.982;2022-10-16T03:49:30;99548.49;;;10.14;100.00
54872;BME280;43914;57.680;11.982;2022-10-16T03:51:56;99548.81;;;10.08;100.00
54872;BME280;43914;57.680;11.982;2022-10-16T03:54:22;99554.30;;;10.04;100.00
54872;BME280;43914;57.680;11.982;2022-10-16T03:56:49;99547.20;;;10.01;100.00
54872;BME280;43914;57.680;11.982;2022-10-16T03:59:15;99551.73;;;9.93;100.00
54872;BME280;43914;57.680;11.982;2022-10-16T04:01:41;99551.04;;;9.89;100.00
54872;BME280;43914;57.680;11.982;2022-10-16T04:04:07;99549.28;;;9.85;100.00
54872;BME280;43914;57.680;11.982;2022-10-16T04:06:33;99555.48;;;9.79;100.00
54872;BME280;43914;57.680;11.982;2022-10-16T04:09:02;99562.92;;;9.77;100.00
54872;BME280;43914;57.680;11.982;2022-10-16T04:11:28;99556.22;;;9.70;100.00
54872;BME280;43914;57.680;11.982;2022-10-16T04:13:54;99555.29;;;9.67;100.00
54872;BME280;43914;57.680;11.982;2022-10-16T04:16:22;99556.12;;;9.61;100.00
54872;BME280;43914;57.680;11.982;2022-10-16T04:18:48;99557.27;;;9.56;100.00
54872;BME280;43914;57.680;11.982;2022-10-16T04:21:14;99560.98;;;9.55;100.00
54872;BME280;43914;57.680;11.982;2022-10-16T04:23:42;99561.06;;;9.50;100.00
54872;BME280;43914;57.680;11.982;2022-10-16T04:26:08;99557.45;;;9.47;100.00
54872;BME280;43914;57.680;11.982;2022-10-16T04:28:36;99559.74;;;9.44;100.00
54872;BME280;43914;57.680;11.982;2022-10-16T04:31:06;99557.67;;;9.39;100.00
54872;BME280;43914;57.680;11.982;2022-10-16T04:33:34;99546.33;;;9.37;100.00
54872;BME280;43914;57.680;11.982;2022-10-16T04:36:01;99550.45;;;9.33;100.00
54872;BME280;43914;57.680;11.982;2022-10-16T04:38:28;99555.70;;;9.30;100.00
54872;BME280;43914;57.680;11.982;2022-10-16T04:40:54;99554.05;;;9.29;100.00
54872;BME280;43914;57.680;11.982;2022-10-16T04:43:21;99557.45;;;9.27;100.00
54872;BME280;43914;57.680;11.982;2022-10-16T04:45:47;99554.05;;;9.29;100.00
54872;BME280;43914;57.680;11.982;2022-10-16T04:48:15;99550.23;;;9.34;100.00
54872;BME280;43914;57.680;11.982;2022-10-16T04:50:42;99544.26;;;9.39;100.00
54872;BME280;43914;57.680;11.982;2022-10-16T04:53:08;99547.56;;;9.41;100.00
54872;BME280;43914;57.680;11.982;2022-10-16T04:55:34;99550.05;;;9.43;100.00
54872;BME280;43914;57.680;11.982;2022-10-16T04:58:00;99552.42;;;9.42;100.00
54872;BME280;43914;57.680;11.982;2022-10-16T05:00:26;99555.91;;;9.42;100.00
54872;BME280;43914;57.680;11.982;2022-10-16T05:02:53;99560.47;;;9.42;100.00
54872;BME280;43914;57.680;11.982;2022-10-16T05:05:19;99562.84;;;9.41;100.00
54872;BME280;43914;57.680;11.982;2022-10-16T05:07:46;99557.67;;;9.39;100.00
54872;BME280;43914;57.680;11.982;2022-10-16T05:10:12;99549.94;;;9.40;100.00
54872;BME280;43914;57.680;11.982;2022-10-16T05:12:39;99536.21;;;9.39;100.00
54872;BME280;43914;57.680;11.982;2022-10-16T05:15:05;99531.69;;;9.40;100.00
54872;BME280;43914;57.680;11.982;2022-10-16T05:17:32;99535.71;;;9.40;100.00
54872;BME280;43914;57.680;11.982;2022-10-16T05:19:58;99532.50;;;9.40;100.00
54872;BME280;43914;57.680;11.982;2022-10-16T05:22:25;99539.52;;;9.41;100.00
54872;BME280;43914;57.680;11.982;2022-10-16T05:24:51;99546.33;;;9.44;100.00
54872;BME280;43914;57.680;11.982;2022-10-16T05:27:17;99545.61;;;9.46;100.00
54872;BME280;43914;57.680;11.982;2022-10-16T05:29:47;99551.06;;;9.48;100.00
54872;BME280;43914;57.680;11.982;2022-10-16T05:32:15;99543.94;;;9.51;100.00
54872;BME280;43914;57.680;11.982;2022-10-16T05:34:42;99542.52;;;9.56;100.00
54872;BME280;43914;57.680;11.982;2022-10-16T05:37:09;99542.72;;;9.61;100.00
54872;BME280;43914;57.680;11.982;2022-10-16T05:39:36;99537.43;;;9.63;100.00
54872;BME280;43914;57.680;11.982;2022-10-16T05:42:04;99538.69;;;9.67;100.00
54872;BME280;43914;57.680;11.982;2022-10-16T05:44:30;99541.15;;;9.69;100.00
54872;BME280;43914;57.680;11.982;2022-10-16T05:46:57;99542.07;;;9.72;100.00
54872;BME280;43914;57.680;11.982;2022-10-16T05:49:25;99537.94;;;9.76;100.00
54872;BME280;43914;57.680;11.982;2022-10-16T05:51:51;99534.83;;;9.79;100.00
54872;BME280;43914;57.680;11.982;2022-10-16T05:54:18;99526.05;;;9.81;100.00
54872;BME280;43914;57.680;11.982;2022-10-16T05:56:44;99539.39;;;9.86;100.00
54872;BME280;43914;57.680;11.982;2022-10-16T05:59:12;99543.30;;;9.90;100.00
54872;BME280;43914;57.680;11.982;2022-10-16T06:01:38;99541.61;;;9.95;100.00
54872;BME280;43914;57.680;11.982;2022-10-16T06:04:04;99550.08;;;9.99;100.00
54872;BME280;43914;57.680;11.982;2022-10-16T06:06:30;99551.53;;;10.02;100.00
54872;BME280;43914;57.680;11.982;2022-10-16T06:08:57;99545.52;;;10.06;100.00
54872;BME280;43914;57.680;11.982;2022-10-16T06:11:28;99543.02;;;10.11;100.00
54872;BME280;43914;57.680;11.982;2022-10-16T06:13:57;99538.06;;;10.15;100.00
54872;BME280;43914;57.680;11.982;2022-10-16T06:16:26;99530.42;;;10.19;100.00
54872;BME280;43914;57.680;11.982;2022-10-16T06:18:53;99547.52;;;10.24;100.00
54872;BME280;43914;57.680;11.982;2022-10-16T06:21:23;99547.33;;;10.26;100.00
54872;BME280;43914;57.680;11.982;2022-10-16T06:23:51;99546.47;;;10.32;100.00
54872;BME280;43914;57.680;11.982;2022-10-16T06:26:20;99543.36;;;10.35;100.00
54872;BME280;43914;57.680;11.982;2022-10-16T06:28:48;99541.89;;;10.39;100.00
54872;BME280;43914;57.680;11.982;2022-10-16T06:31:17;99544.48;;;10.44;100.00
54872;BME280;43914;57.680;11.982;2022-10-16T06:33:43;99549.77;;;10.48;100.00
54872;BME280;43914;57.680;11.982;2022-10-16T06:36:13;99546.11;;;10.51;100.00
54872;BME280;43914;57.680;11.982;2022-10-16T06:38:42;99551.66;;;10.57;100.00
54872;BME280;43914;57.680;11.982;2022-10-16T06:41:14;99549.89;;;10.60;100.00
54872;BME280;43914;57.680;11.982;2022-10-16T06:43:43;99561.34;;;10.64;100.00
54872;BME280;43914;57.680;11.982;2022-10-16T06:46:15;99551.52;;;10.67;100.00
54872;BME280;43914;57.680;11.982;2022-10-16T06:48:42;99559.45;;;10.72;100.00
54872;BME280;43914;57.680;11.982;2022-10-16T06:53:43;99550.72;;;10.83;100.00
54872;BME280;43914;57.680;11.982;2022-10-16T06:56:19;99549.55;;;10.88;100.00
54872;BME280;43914;57.680;11.982;2022-10-16T06:58:49;99545.08;;;10.91;100.00
54872;BME280;43914;57.680;11.982;2022-10-16T07:01:17;99549.28;;;10.96;100.00
54872;BME280;43914;57.680;11.982;2022-10-16T07:03:45;99551.77;;;10.98;100.00
54872;BME280;43914;57.680;11.982;2022-10-16T07:06:13;99546.16;;;11.00;100.00
54872;BME280;43914;57.680;11.982;2022-10-16T07:08:42;99551.64;;;11.02;100.00
54872;BME280;43914;57.680;11.982;2022-10-16T07:11:16;99548.95;;;11.02;100.00
54872;BME280;43914;57.680;11.982;2022-10-16T07:13:42;99553.59;;;11.04;100.00
54872;BME280;43914;57.680;11.982;2022-10-16T07:16:14;99541.25;;;11.06;100.00
54872;BME280;43914;57.680;11.982;2022-10-16T07:18:42;99538.36;;;11.07;100.00
54872;BME280;43914;57.680;11.982;2022-10-16T07:21:13;99540.55;;;11.08;100.00
54872;BME280;43914;57.680;11.982;2022-10-16T07:23:50;99530.70;;;11.11;100.00
54872;BME280;43914;57.680;11.982;2022-10-16T07:26:21;99537.05;;;11.17;100.00
54872;BME280;43914;57.680;11.982;2022-10-16T07:28:48;99540.34;;;11.19;100.00
54872;BME280;43914;57.680;11.982;2022-10-16T07:31:16;99541.04;;;11.23;100.00
54872;BME280;43914;57.680;11.982;2022-10-16T07:33:45;99539.26;;;11.26;100.00
54872;BME280;43914;57.680;11.982;2022-10-16T07:36:14;99534.44;;;11.35;100.00
54872;BME280;43914;57.680;11.982;2022-10-16T07:38:44;99534.39;;;11.42;100.00
54872;BME280;43914;57.680;11.982;2022-10-16T07:41:13;99539.62;;;11.46;100.00
54872;BME280;43914;57.680;11.982;2022-10-16T07:43:46;99532.82;;;11.53;100.00
54872;BME280;43914;57.680;11.982;2022-10-16T07:46:13;99533.07;;;11.61;100.00
54872;BME280;43914;57.680;11.982;2022-10-16T07:48:39;99530.33;;;11.67;100.00
54872;BME280;43914;57.680;11.982;2022-10-16T07:51:07;99529.52;;;11.76;100.00
54872;BME280;43914;57.680;11.982;2022-10-16T07:53:33;99539.40;;;11.82;100.00
54872;BME280;43914;57.680;11.982;2022-10-16T07:56:01;99533.87;;;11.87;100.00
54872;BME280;43914;57.680;11.982;2022-10-16T07:58:29;99539.64;;;11.90;100.00
54872;BME280;43914;57.680;11.982;2022-10-16T08:00:57;99535.51;;;11.97;100.00
54872;BME280;43914;57.680;11.982;2022-10-16T08:03:24;99537.27;;;12.01;100.00
54872;BME280;43914;57.680;11.982;2022-10-16T08:05:51;99533.68;;;12.07;100.00
54872;BME280;43914;57.680;11.982;2022-10-16T08:08:18;99537.87;;;12.12;100.00
54872;BME280;43914;57.680;11.982;2022-10-16T08:10:45;99533.67;;;12.16;100.00
54872;BME280;43914;57.680;11.982;2022-10-16T08:13:11;99525.31;;;12.24;100.00
54872;BME280;43914;57.680;11.982;2022-10-16T08:15:39;99528.36;;;12.28;100.00
54872;BME280;43914;57.680;11.982;2022-10-16T08:18:05;99537.58;;;12.30;100.00
54872;BME280;43914;57.680;11.982;2022-10-16T08:20:32;99535.56;;;12.34;100.00
54872;BME280;43914;57.680;11.982;2022-10-16T08:23:00;99532.47;;;12.40;100.00
54872;BME280;43914;57.680;11.982;2022-10-16T08:25:27;99531.26;;;12.45;100.00
54872;BME280;43914;57.680;11.982;2022-10-16T08:27:53;99509.33;;;12.51;100.00
54872;BME280;43914;57.680;11.982;2022-10-16T08:30:21;99539.56;;;12.53;100.00
54872;BME280;43914;57.680;11.982;2022-10-16T08:32:48;99542.09;;;12.57;100.00
54872;BME280;43914;57.680;11.982;2022-10-16T08:35:15;99542.78;;;12.62;100.00
54872;BME280;43914;57.680;11.982;2022-10-16T08:37:42;99543.37;;;12.64;100.00
54872;BME280;43914;57.680;11.982;2022-10-16T08:40:26;99536.41;;;12.65;100.00
54872;BME280;43914;57.680;11.982;2022-10-16T08:43:40;99536.84;;;12.72;100.00
54872;BME280;43914;57.680;11.982;2022-10-16T08:46:31;99544.47;;;12.75;100.00
54872;BME280;43914;57.680;11.982;2022-10-16T08:49:01;99535.92;;;12.78;100.00
54872;BME280;43914;57.680;11.982;2022-10-16T08:51:36;99555.69;;;12.81;100.00
54872;BME280;43914;57.680;11.982;2022-10-16T08:56:57;99549.75;;;12.91;100.00
54872;BME280;43914;57.680;11.982;2022-10-16T08:59:29;99548.14;;;13.02;100.00
54872;BME280;43914;57.680;11.982;2022-10-16T09:01:55;99559.52;;;13.04;100.00
54872;BME280;43914;57.680;11.982;2022-10-16T09:10:21;99543.89;;;12.94;100.00
54872;BME280;43914;57.680;11.982;2022-10-16T09:13:31;99547.86;;;12.91;100.00
54872;BME280;43914;57.680;11.982;2022-10-16T09:16:34;99557.00;;;12.90;100.00
54872;BME280;43914;57.680;11.982;2022-10-16T09:19:15;99546.33;;;12.83;100.00
54872;BME280;43914;57.680;11.982;2022-10-16T09:21:46;99547.22;;;12.77;100.00
54872;BME280;43914;57.680;11.982;2022-10-16T09:24:16;99550.63;;;12.73;100.00
54872;BME280;43914;57.680;11.982;2022-10-16T09:26:47;99555.12;;;12.69;100.00
54872;BME280;43914;57.680;11.982;2022-10-16T09:29:16;99549.14;;;12.67;100.00
54872;BME280;43914;57.680;11.982;2022-10-16T09:31:45;99555.12;;;12.69;100.00
54872;BME280;43914;57.680;11.982;2022-10-16T09:36:56;99559.97;;;12.70;100.00
54872;BME280;43914;57.680;11.982;2022-10-16T09:39:24;99555.63;;;12.69;100.00
54872;BME280;43914;57.680;11.982;2022-10-16T09:41:51;99542.91;;;12.67;100.00
54872;BME280;43914;57.680;11.982;2022-10-16T09:44:27;99549.44;;;12.68;100.00
54872;BME280;43914;57.680;11.982;2022-10-16T09:47:15;99541.98;;;12.73;100.00
54872;BME280;43914;57.680;11.982;2022-10-16T09:50:03;99549.41;;;12.78;100.00
54872;BME280;43914;57.680;11.982;2022-10-16T09:52:32;99543.63;;;12.83;100.00
54872;BME280;43914;57.680;11.982;2022-10-16T09:55:12;99554.84;;;12.90;100.00
54872;BME280;43914;57.680;11.982;2022-10-16T09:57:30;99542.84;;;12.95;100.00
54872;BME280;43914;57.680;11.982;2022-10-16T09:59:57;99547.85;;;13.01;99.93
54872;BME280;43914;57.680;11.982;2022-10-16T10:02:36;99544.69;;;13.04;99.62
54872;BME280;43914;57.680;11.982;2022-10-16T10:05:05;99537.23;;;13.08;99.66
54872;BME280;43914;57.680;11.982;2022-10-16T10:07:42;99537.09;;;13.12;99.01
54872;BME280;43914;57.680;11.982;2022-10-16T10:10:23;99540.14;;;13.16;98.78
54872;BME280;43914;57.680;11.982;2022-10-16T10:12:56;99538.91;;;13.21;98.03
54872;BME280;43914;57.680;11.982;2022-10-16T10:15:23;99547.28;;;13.32;97.21
54872;BME280;43914;57.680;11.982;2022-10-16T10:17:57;99546.86;;;13.37;96.49
54872;BME280;43914;57.680;11.982;2022-10-16T10:20:29;99536.72;;;13.42;96.54
54872;BME280;43914;57.680;11.982;2022-10-16T10:22:58;99532.61;;;13.49;95.65
54872;BME280;43914;57.680;11.982;2022-10-16T10:25:32;99533.23;;;13.53;95.39
54872;BME280;43914;57.680;11.982;2022-10-16T10:33:48;99539.34;;;13.49;94.05
54872;BME280;43914;57.680;11.982;2022-10-16T10:36:32;99536.58;;;13.46;95.04
54872;BME280;43914;57.680;11.982;2022-10-16T10:43:09;99542.47;;;13.34;94.64
54872;BME280;43914;57.680;11.982;2022-10-16T10:53:11;99557.55;;;12.90;97.51
54872;BME280;43914;57.680;11.982;2022-10-16T10:58:44;99533.61;;;12.72;95.61
54872;BME280;43914;57.680;11.982;2022-10-16T11:01:16;99534.44;;;12.63;98.29
54872;BME280;43914;57.680;11.982;2022-10-16T11:07:22;99539.03;;;12.63;100.00
54872;BME280;43914;57.680;11.982;2022-10-16T11:09:56;99521.13;;;12.59;100.00
54872;BME280;43914;57.680;11.982;2022-10-16T11:12:32;99516.79;;;12.58;100.00
54872;BME280;43914;57.680;11.982;2022-10-16T11:15:19;99527.57;;;12.58;100.00
54872;BME280;43914;57.680;11.982;2022-10-16T11:17:53;99530.86;;;12.60;100.00
54872;BME280;43914;57.680;11.982;2022-10-16T11:20:26;99527.20;;;12.64;100.00
54872;BME280;43914;57.680;11.982;2022-10-16T11:23:18;99516.20;;;12.65;100.00
54872;BME280;43914;57.680;11.982;2022-10-16T11:25:49;99512.04;;;12.72;100.00
54872;BME280;43914;57.680;11.982;2022-10-16T11:28:38;99507.91;;;12.79;100.00
54872;BME280;43914;57.680;11.982;2022-10-16T11:39:38;99502.77;;;12.89;100.00
54872;BME280;43914;57.680;11.982;2022-10-16T11:42:13;99510.27;;;12.87;100.00
54872;BME280;43914;57.680;11.982;2022-10-16T11:50:40;99510.94;;;12.70;100.00
54872;BME280;43914;57.680;11.982;2022-10-16T11:53:14;99507.57;;;12.66;100.00
54872;BME280;43914;57.680;11.982;2022-10-16T11:55:49;99506.68;;;12.63;100.00
54872;BME280;43914;57.680;11.982;2022-10-16T11:58:46;99485.75;;;12.55;100.00
54872;BME280;43914;57.680;11.982;2022-10-16T12:04:27;99595.58;;;12.41;99.51
54872;BME280;43914;57.680;11.982;2022-10-16T12:07:08;99671.56;;;12.06;99.58
54872;BME280;43914;57.680;11.982;2022-10-16T12:09:39;99624.08;;;11.13;96.21
54872;BME280;43914;57.680;11.982;2022-10-16T12:12:37;99611.48;;;10.61;98.20
54872;BME280;43914;57.680;11.982;2022-10-16T12:17:52;99596.47;;;9.84;100.00
54872;BME280;43914;57.680;11.982;2022-10-16T12:20:30;99600.70;;;9.62;100.00
54872;BME280;43914;57.680;11.982;2022-10-16T12:23:03;99590.47;;;9.41;100.00
54872;BME280;43914;57.680;11.982;2022-10-16T12:25:36;99599.02;;;9.34;100.00
54872;BME280;43914;57.680;11.982;2022-10-16T12:28:17;99583.45;;;9.27;100.00
54872;BME280;43914;57.680;11.982;2022-10-16T12:30:43;99566.44;;;9.23;100.00
54872;BME280;43914;57.680;11.982;2022-10-16T12:33:28;99574.79;;;9.24;100.00
54872;BME280;43914;57.680;11.982;2022-10-16T12:35:58;99570.15;;;9.22;100.00
54872;BME280;43914;57.680;11.982;2022-10-16T12:38:37;99572.71;;;9.20;100.00
54872;BME280;43914;57.680;11.982;2022-10-16T12:41:07;99582.42;;;9.28;100.00
54872;BME280;43914;57.680;11.982;2022-10-16T12:43:43;99578.40;;;9.41;100.00
54872;BME280;43914;57.680;11.982;2022-10-16T12:48:43;99573.63;;;9.97;100.00
54872;BME280;43914;57.680;11.982;2022-10-16T12:54:15;99582.00;;;10.48;100.00
54872;BME280;43914;57.680;11.982;2022-10-16T13:02:58;99600.34;;;11.03;100.00
54872;BME280;43914;57.680;11.982;2022-10-16T13:11:51;99619.91;;;11.17;100.00
54872;BME280;43914;57.680;11.982;2022-10-16T13:19:44;99639.09;;;11.05;100.00
54872;BME280;43914;57.680;11.982;2022-10-16T13:22:23;99639.95;;;10.99;100.00
54872;BME280;43914;57.680;11.982;2022-10-16T13:28:08;99655.70;;;10.95;100.00
54872;BME280;43914;57.680;11.982;2022-10-16T13:30:44;99671.91;;;10.97;100.00
54872;BME280;43914;57.680;11.982;2022-10-16T13:33:26;99680.16;;;11.03;100.00
54872;BME280;43914;57.680;11.982;2022-10-16T13:35:56;99673.41;;;11.09;100.00
54872;BME280;43914;57.680;11.982;2022-10-16T13:38:26;99689.91;;;11.20;100.00
54872;BME280;43914;57.680;11.982;2022-10-16T13:41:04;99706.02;;;11.26;100.00
54872;BME280;43914;57.680;11.982;2022-10-16T13:43:41;99727.28;;;11.35;99.12
54872;BME280;43914;57.680;11.982;2022-10-16T13:46:20;99713.94;;;11.37;97.47
54872;BME280;43914;57.680;11.982;2022-10-16T13:49:15;99706.27;;;11.41;95.42
54872;BME280;43914;57.680;11.982;2022-10-16T13:51:55;99715.98;;;11.42;93.68
54872;BME280;43914;57.680;11.982;2022-10-16T13:54:24;99730.48;;;11.41;93.43
54872;BME280;43914;57.680;11.982;2022-10-16T13:56:52;99738.55;;;11.41;91.52
54872;BME280;43914;57.680;11.982;2022-10-16T13:59:41;99740.20;;;11.42;89.85
54872;BME280;43914;57.680;11.982;2022-10-16T14:02:13;99744.31;;;11.45;88.78
54872;BME280;43914;57.680;11.982;2022-10-16T14:04:45;99731.88;;;11.50;88.12
54872;BME280;43914;57.680;11.982;2022-10-16T14:07:20;99739.98;;;11.60;88.64
54872;BME280;43914;57.680;11.982;2022-10-16T14:09:53;99738.81;;;11.65;89.50
54872;BME280;43914;57.680;11.982;2022-10-16T14:12:20;99750.89;;;11.72;89.78
54872;BME280;43914;57.680;11.982;2022-10-16T14:14:49;99758.33;;;11.76;88.98
54872;BME280;43914;57.680;11.982;2022-10-16T14:19:58;99760.48;;;11.77;85.82
54872;BME280;43914;57.680;11.982;2022-10-16T14:25:29;99781.52;;;11.77;86.24
54872;BME280;43914;57.680;11.982;2022-10-16T14:30:34;99788.12;;;11.81;86.70
54872;BME280;43914;57.680;11.982;2022-10-16T14:33:18;99788.86;;;11.79;86.42
54872;BME280;43914;57.680;11.982;2022-10-16T14:35:37;99790.09;;;11.77;86.61
54872;BME280;43914;57.680;11.982;2022-10-16T14:38:06;99804.60;;;11.76;85.84
54872;BME280;43914;57.680;11.982;2022-10-16T14:40:36;99802.87;;;11.72;85.45
54872;BME280;43914;57.680;11.982;2022-10-16T14:43:04;99804.73;;;11.72;85.45
54872;BME280;43914;57.680;11.982;2022-10-16T14:45:33;99794.70;;;11.69;86.03